createdAt,value
2022-08-23T00:02:26.476Z,100506.44
2022-08-23T00:05:08.381Z,100505.56
2022-08-23T00:07:43.519Z,100504.50
2022-08-23T00:10:13.575Z,100509.56
2022-08-23T00:12:41.795Z,100501.16
2022-08-23T00:15:11.144Z,100508.69
2022-08-23T00:17:39.452Z,100492.44
2022-08-23T00:20:08.180Z,100497.22
2022-08-23T00:22:35.855Z,100504.50
2022-08-23T00:25:02.556Z,100501.69
2022-08-23T00:27:29.194Z,100500.28
2022-08-23T00:29:57.318Z,100495.53
2022-08-23T00:32:33.991Z,100486.84
2022-08-23T00:35:01.583Z,100483.69
2022-08-23T00:37:32.360Z,100487.28
2022-08-23T00:40:00.180Z,100489.78
2022-08-23T00:43:12.643Z,100484.16
2022-08-23T00:46:22.730Z,100476.28
2022-08-23T00:48:50.581Z,100472.38
2022-08-23T00:51:23.628Z,100472.38
2022-08-23T00:53:55.505Z,100472.91
2022-08-23T00:56:25.204Z,100475.41
2022-08-23T00:58:54.519Z,100481.84
2022-08-23T01:01:24.450Z,100483.56
2022-08-23T01:04:04.074Z,100479.63
2022-08-23T01:06:44.428Z,100488.03
2022-08-23T01:09:19.255Z,100484.44
2022-08-23T01:11:52.453Z,100488.09
2022-08-23T01:14:33.951Z,100498.13
2022-08-23T01:17:08.531Z,100486.56
2022-08-23T01:19:47.992Z,100494.91
2022-08-23T01:22:26.749Z,100491.53
2022-08-23T01:25:07.007Z,100494.00
2022-08-23T01:27:39.697Z,100487.75
2022-08-23T01:30:10.129Z,100490.53
2022-08-23T01:32:47.810Z,100491.38
2022-08-23T01:35:15.163Z,100482.84
2022-08-23T01:37:42.428Z,100492.38
2022-08-23T01:40:09.820Z,100496.66
2022-08-23T01:42:36.632Z,100498.34
2022-08-23T01:45:04.163Z,100491.53
2022-08-23T01:47:31.853Z,100493.19
2022-08-23T01:49:59.410Z,100494.84
2022-08-23T01:52:26.165Z,100499.59
2022-08-23T01:54:53.220Z,100496.88
2022-08-23T01:57:20.292Z,100494.00
2022-08-23T01:59:47.318Z,100492.91
2022-08-23T02:02:14.950Z,100505.50
2022-08-23T02:04:41.892Z,100509.13
2022-08-23T02:07:08.632Z,100507.19
2022-08-23T02:09:35.538Z,100509.91
2022-08-23T02:12:03.490Z,100505.47
2022-08-23T02:14:31.493Z,100495.78
2022-08-23T02:17:04.046Z,100496.25
2022-08-23T02:19:34.414Z,100497.94
2022-08-23T02:22:03.239Z,100498.44
2022-08-23T02:24:31.318Z,100498.25
2022-08-23T02:27:02.554Z,100500.78
2022-08-23T02:29:30.503Z,100512.22
2022-08-23T02:32:00.242Z,100506.91
2022-08-23T02:34:28.956Z,100508.56
2022-08-23T02:36:56.134Z,100504.91
2022-08-23T02:39:23.812Z,100501.06
2022-08-23T02:41:51.878Z,100511.44
2022-08-23T02:44:19.772Z,100509.47
2022-08-23T02:46:47.393Z,100507.56
2022-08-23T02:49:15.909Z,100512.63
2022-08-23T02:51:43.111Z,100511.13
2022-08-23T02:54:09.894Z,100507.22
2022-08-23T02:56:36.728Z,100512.31
2022-08-23T02:59:05.272Z,100516.22
2022-08-23T03:01:36.633Z,100508.72
2022-08-23T03:04:16.204Z,100508.69
2022-08-23T03:06:42.911Z,100515.88
2022-08-23T03:09:11.201Z,100512.19
2022-08-23T03:11:38.277Z,100508.16
2022-08-23T03:14:05.291Z,100502.94
2022-08-23T03:16:32.283Z,100504.06
2022-08-23T03:18:59.031Z,100512.50
2022-08-23T03:21:25.625Z,100512.91
2022-08-23T03:23:52.285Z,100512.50
2022-08-23T03:26:19.753Z,100509.22
2022-08-23T03:28:47.823Z,100497.78
2022-08-23T03:34:03.079Z,100498.88
2022-08-23T03:36:29.804Z,100510.56
2022-08-23T03:38:58.442Z,100510.50
2022-08-23T03:41:25.956Z,100513.38
2022-08-23T03:43:52.898Z,100515.13
2022-08-23T03:46:23.763Z,100524.38
2022-08-23T03:49:00.266Z,100520.81
2022-08-23T03:51:34.209Z,100530.41
2022-08-23T03:54:02.086Z,100530.59
2022-08-23T03:56:28.745Z,100526.59
2022-08-23T03:58:57.008Z,100526.69
2022-08-23T04:01:28.543Z,100528.03
2022-08-23T04:03:58.337Z,100532.47
2022-08-23T04:06:25.037Z,100542.81
2022-08-23T04:08:54.598Z,100542.09
2022-08-23T04:11:22.777Z,100543.88
2022-08-23T04:13:56.520Z,100550.22
2022-08-23T04:16:23.282Z,100547.16
2022-08-23T04:18:49.990Z,100551.13
2022-08-23T04:21:22.452Z,100547.97
2022-08-23T04:23:49.748Z,100545.13
2022-08-23T04:26:16.504Z,100552.66
2022-08-23T04:28:44.597Z,100551.78
2022-08-23T04:31:12.540Z,100551.03
2022-08-23T04:33:42.405Z,100556.88
2022-08-23T04:36:12.059Z,100552.50
2022-08-23T04:38:39.439Z,100561.63
2022-08-23T04:41:26.542Z,100561.63
2022-08-23T04:43:56.280Z,100566.63
2022-08-23T04:46:24.523Z,100576.31
2022-08-23T04:48:54.026Z,100569.94
2022-08-23T04:51:22.120Z,100570.44
2022-08-23T04:53:48.834Z,100573.13
2022-08-23T04:56:35.889Z,100576.78
2022-08-23T04:59:03.251Z,100575.91
2022-08-23T05:01:30.510Z,100579.38
2022-08-23T05:03:57.500Z,100574.91
2022-08-23T05:06:26.445Z,100586.00
2022-08-23T05:08:53.361Z,100583.53
2022-08-23T05:11:20.611Z,100587.25
2022-08-23T05:13:48.607Z,100588.19
2022-08-23T05:16:16.260Z,100594.25
2022-08-23T05:18:51.629Z,100586.22
2022-08-23T05:21:21.729Z,100592.09
2022-08-23T05:23:50.721Z,100592.16
2022-08-23T05:26:20.577Z,100588.44
2022-08-23T05:28:48.961Z,100601.72
2022-08-23T05:31:22.355Z,100594.09
2022-08-23T05:33:55.554Z,100596.31
2022-08-23T05:36:48.314Z,100603.91
2022-08-23T05:39:36.458Z,100597.06
2022-08-23T05:42:08.213Z,100604.00
2022-08-23T05:44:36.392Z,100605.19
2022-08-23T05:47:10.661Z,100616.06
2022-08-23T05:49:47.541Z,100608.66
2022-08-23T05:52:14.682Z,100616.75
2022-08-23T05:54:43.355Z,100617.31
2022-08-23T05:57:38.316Z,100626.72
2022-08-23T06:00:10.465Z,100617.56
2022-08-23T06:02:46.395Z,100627.53
2022-08-23T06:05:13.911Z,100625.66
2022-08-23T06:07:42.043Z,100638.00
2022-08-23T06:10:09.821Z,100637.47
2022-08-23T06:12:47.088Z,100637.63
2022-08-23T06:15:14.907Z,100634.81
2022-08-23T06:17:41.912Z,100637.34
2022-08-23T06:20:10.324Z,100646.50
2022-08-23T06:22:54.049Z,100635.72
2022-08-23T06:25:20.743Z,100639.31
2022-08-23T06:27:54.447Z,100635.66
2022-08-23T06:30:23.299Z,100642.16
2022-08-23T06:32:55.966Z,100645.91
2022-08-23T06:35:38.911Z,100649.75
2022-08-23T06:38:09.333Z,100643.59
2022-08-23T06:40:48.037Z,100644.84
2022-08-23T06:43:29.298Z,100654.06
2022-08-23T06:46:23.605Z,100652.66
2022-08-23T06:48:51.914Z,100647.66
2022-08-23T06:51:29.109Z,100649.41
2022-08-23T06:54:34.684Z,100651.91
2022-08-23T06:57:32.738Z,100659.22
2022-08-23T07:00:28.807Z,100667.50
2022-08-23T07:03:15.842Z,100664.59
2022-08-23T07:06:01.605Z,100658.22
2022-08-23T07:08:31.278Z,100661.91
2022-08-23T07:10:58.221Z,100664.50
2022-08-23T07:13:25.189Z,100670.75
2022-08-23T07:15:56.604Z,100676.06
2022-08-23T07:18:23.624Z,100676.16
2022-08-23T07:20:50.297Z,100674.75
2022-08-23T07:23:17.540Z,100681.78
2022-08-23T07:25:44.514Z,100677.59
2022-08-23T07:28:15.350Z,100676.50
2022-08-23T07:30:45.266Z,100676.28
2022-08-23T07:33:13.141Z,100681.88
2022-08-23T07:35:59.884Z,100676.88
2022-08-23T07:38:30.604Z,100687.56
2022-08-23T07:40:58.683Z,100689.50
2022-08-23T07:43:25.651Z,100688.38
2022-08-23T07:45:53.561Z,100684.47
2022-08-23T07:48:43.346Z,100688.69
2022-08-23T07:51:14.130Z,100686.75
2022-08-23T07:53:45.810Z,100691.47
2022-08-23T07:56:16.585Z,100686.16
2022-08-23T07:59:05.719Z,100694.91
2022-08-23T08:01:43.303Z,100690.13
2022-08-23T08:04:11.412Z,100696.88
2022-08-23T08:06:59.844Z,100694.63
2022-08-23T08:09:33.630Z,100694.34
2022-08-23T08:12:00.716Z,100690.69
2022-08-23T08:14:30.306Z,100691.81
2022-08-23T08:17:00.433Z,100698.00
2022-08-23T08:19:47.366Z,100692.31
2022-08-23T08:22:36.929Z,100694.81
2022-08-23T08:25:18.964Z,100698.75
2022-08-23T08:27:48.219Z,100698.78
2022-08-23T08:30:14.923Z,100694.00
2022-08-23T08:32:47.258Z,100693.97
2022-08-23T08:35:14.443Z,100695.63
2022-08-23T08:37:41.159Z,100687.47
2022-08-23T08:40:09.210Z,100698.69
2022-08-23T08:43:07.134Z,100704.78
2022-08-23T08:46:13.653Z,100707.59
2022-08-23T08:48:45.865Z,100701.94
2022-08-23T08:51:43.894Z,100700.19
2022-08-23T08:54:15.890Z,100695.91
2022-08-23T08:56:51.285Z,100707.16
2022-08-23T08:59:28.800Z,100709.69
2022-08-23T09:01:57.563Z,100708.50
2022-08-23T09:04:31.899Z,100714.13
2022-08-23T09:07:07.240Z,100708.44
2022-08-23T09:09:51.511Z,100711.75
2022-08-23T09:13:03.646Z,100706.69
2022-08-23T09:16:11.335Z,100707.13
2022-08-23T09:18:38.275Z,100710.19
2022-08-23T09:21:09.983Z,100713.34
2022-08-23T09:24:00.154Z,100711.34
2022-08-23T09:26:38.773Z,100717.16
2022-08-23T09:29:20.866Z,100705.91
2022-08-23T09:31:54.999Z,100713.75
2022-08-23T09:34:36.059Z,100721.31
2022-08-23T09:37:22.959Z,100714.28
2022-08-23T09:39:54.207Z,100714.41
2022-08-23T09:42:38.533Z,100708.78
2022-08-23T09:45:35.445Z,100704.53
2022-08-23T09:48:06.027Z,100709.16
2022-08-23T09:50:42.132Z,100713.16
2022-08-23T09:53:11.526Z,100724.47
2022-08-23T09:55:42.526Z,100715.81
2022-08-23T09:58:38.499Z,100703.09
2022-08-23T10:01:16.410Z,100701.06
2022-08-23T10:04:05.814Z,100710.13
2022-08-23T10:06:35.911Z,100710.03
2022-08-23T10:09:07.963Z,100704.47
2022-08-23T10:11:46.788Z,100703.00
2022-08-23T10:14:19.541Z,100710.03
2022-08-23T10:17:15.784Z,100703.66
2022-08-23T10:19:47.733Z,100710.22
2022-08-23T10:22:28.503Z,100703.81
2022-08-23T10:25:36.850Z,100711.13
2022-08-23T10:28:44.776Z,100706.19
2022-08-23T10:31:20.549Z,100707.16
2022-08-23T10:33:59.274Z,100708.22
2022-08-23T10:37:07.571Z,100704.41
2022-08-23T10:39:43.996Z,100697.47
2022-08-23T10:42:25.493Z,100687.41
2022-08-23T10:45:06.282Z,100699.53
2022-08-23T10:47:37.580Z,100687.97
2022-08-23T10:50:20.459Z,100693.03
2022-08-23T10:53:15.940Z,100689.63
2022-08-23T10:56:05.845Z,100699.81
2022-08-23T10:58:45.044Z,100693.78
2022-08-23T11:01:52.303Z,100686.53
2022-08-23T11:04:47.717Z,100690.50
2022-08-23T11:07:34.261Z,100680.31
2022-08-23T11:10:16.294Z,100684.03
2022-08-23T11:13:10.718Z,100680.72
2022-08-23T11:15:56.169Z,100678.13
2022-08-23T11:18:28.984Z,100672.16
2022-08-23T11:21:33.407Z,100672.56
2022-08-23T11:24:04.773Z,100670.63
2022-08-23T11:26:40.818Z,100668.69
2022-08-23T11:29:28.575Z,100684.69
2022-08-23T11:32:29.969Z,100678.03
2022-08-23T11:35:08.836Z,100679.25
2022-08-23T11:37:57.090Z,100680.22
2022-08-23T11:40:49.491Z,100681.91
2022-08-23T11:43:26.818Z,100677.03
2022-08-23T11:45:54.206Z,100673.81
2022-08-23T11:48:27.340Z,100665.53
2022-08-23T11:51:15.938Z,100671.28
2022-08-23T11:53:58.343Z,100668.09
2022-08-23T11:56:46.368Z,100668.56
2022-08-23T11:59:43.282Z,100676.03
2022-08-23T12:02:40.504Z,100675.38
2022-08-23T12:05:22.674Z,100662.81
2022-08-23T12:07:54.825Z,100670.53
2022-08-23T12:10:45.189Z,100663.44
2022-08-23T12:13:17.898Z,100669.31
2022-08-23T12:16:16.630Z,100663.53
2022-08-23T12:18:47.677Z,100664.34
2022-08-23T12:21:31.677Z,100649.56
2022-08-23T12:24:03.401Z,100657.75
2022-08-23T12:26:42.409Z,100653.25
2022-08-23T12:29:32.776Z,100660.59
2022-08-23T12:32:09.903Z,100655.53
2022-08-23T12:35:00.902Z,100655.22
2022-08-23T12:37:36.547Z,100660.34
2022-08-23T12:40:09.277Z,100656.50
2022-08-23T12:42:38.491Z,100653.00
2022-08-23T12:45:05.260Z,100656.13
2022-08-23T12:47:32.563Z,100652.84
2022-08-23T12:50:15.047Z,100659.78
2022-08-23T12:52:42.481Z,100652.84
2022-08-23T12:55:18.373Z,100652.75
2022-08-23T12:57:54.473Z,100650.16
2022-08-23T13:00:26.048Z,100658.19
2022-08-23T13:03:26.756Z,100653.69
2022-08-23T13:05:55.468Z,100650.31
2022-08-23T13:08:34.455Z,100656.00
2022-08-23T13:11:07.774Z,100653.97
2022-08-23T13:13:39.263Z,100649.59
2022-08-23T13:16:27.433Z,100657.94
2022-08-23T13:18:56.176Z,100656.00
2022-08-23T13:21:22.873Z,100641.22
2022-08-23T13:23:52.123Z,100649.88
2022-08-23T13:26:29.278Z,100653.97
2022-08-23T13:29:05.411Z,100647.97
2022-08-23T13:31:52.416Z,100644.66
2022-08-23T13:34:37.089Z,100653.25
2022-08-23T13:37:19.908Z,100649.44
2022-08-23T13:39:50.351Z,100643.31
2022-08-23T13:42:50.991Z,100646.28
2022-08-23T13:45:32.101Z,100649.44
2022-08-23T13:48:10.285Z,100653.59
2022-08-23T13:50:38.585Z,100643.56
2022-08-23T13:53:15.570Z,100656.38
2022-08-23T13:55:47.141Z,100641.84
2022-08-23T13:58:24.669Z,100648.16
2022-08-23T14:00:55.479Z,100638.66
2022-08-23T14:03:23.367Z,100642.50
2022-08-23T14:05:50.283Z,100646.53
2022-08-23T14:08:17.237Z,100647.31
2022-08-23T14:10:46.341Z,100646.25
2022-08-23T14:13:15.705Z,100649.34
2022-08-23T14:16:32.991Z,100649.63
2022-08-23T14:18:30.803Z,100648.63
2022-08-23T14:20:57.425Z,100652.84
2022-08-23T14:23:24.113Z,100653.56
2022-08-23T14:25:55.031Z,100653.22
2022-08-23T14:28:24.954Z,100651.34
2022-08-23T14:30:51.784Z,100647.16
2022-08-23T14:33:20.324Z,100633.63
2022-08-23T14:35:47.715Z,100651.91
2022-08-23T14:38:15.332Z,100656.69
2022-08-23T14:40:50.446Z,100655.50
2022-08-23T14:43:17.163Z,100660.03
2022-08-23T14:45:43.810Z,100658.38
2022-08-23T14:48:11.602Z,100654.75
2022-08-23T14:50:39.581Z,100658.19
2022-08-23T14:53:06.898Z,100651.44
2022-08-23T14:55:33.600Z,100659.75
2022-08-23T14:58:00.278Z,100647.81
2022-08-23T15:00:26.932Z,100643.50
2022-08-23T15:02:53.783Z,100649.50
2022-08-23T15:05:20.628Z,100652.66
2022-08-23T15:07:47.259Z,100648.34
2022-08-23T15:13:19.149Z,100653.19
2022-08-23T15:15:49.093Z,100646.53
2022-08-23T15:18:16.983Z,100651.41
2022-08-23T15:20:45.261Z,100646.31
2022-08-23T15:23:12.214Z,100652.94
2022-08-23T15:25:41.984Z,100647.03
2022-08-23T15:28:13.160Z,100649.09
2022-08-23T15:30:41.538Z,100647.47
2022-08-23T15:33:08.850Z,100656.25
2022-08-23T15:35:41.305Z,100645.72
2022-08-23T15:38:09.891Z,100650.28
2022-08-23T15:40:36.904Z,100652.19
2022-08-23T15:43:04.010Z,100651.69
2022-08-23T15:45:32.298Z,100640.13
2022-08-23T15:48:01.318Z,100648.94
2022-08-23T15:50:32.559Z,100645.59
2022-08-23T15:53:00.142Z,100642.28
2022-08-23T15:55:31.090Z,100646.38
2022-08-23T15:57:58.329Z,100640.88
2022-08-23T16:00:25.821Z,100635.03
2022-08-23T16:03:18.345Z,100636.69
2022-08-23T16:05:44.163Z,100636.56
2022-08-23T16:08:20.467Z,100642.97
2022-08-23T16:10:47.376Z,100642.78
2022-08-23T16:13:14.276Z,100631.31
2022-08-23T16:15:40.861Z,100622.81
2022-08-23T16:18:07.934Z,100632.50
2022-08-23T16:20:34.648Z,100639.47
2022-08-23T16:23:01.505Z,100630.38
2022-08-23T16:25:28.645Z,100633.09
2022-08-23T16:27:55.603Z,100635.81
2022-08-23T16:30:23.865Z,100639.22
2022-08-23T16:32:50.612Z,100638.94
2022-08-23T16:35:18.335Z,100635.78
2022-08-23T16:37:45.097Z,100632.78
2022-08-23T16:40:12.977Z,100630.81
2022-08-23T16:42:40.445Z,100626.63
2022-08-23T16:45:08.207Z,100632.31
2022-08-23T16:47:40.959Z,100629.81
2022-08-23T16:50:09.280Z,100636.81
2022-08-23T16:52:35.989Z,100632.34
2022-08-23T16:55:09.210Z,100634.47
2022-08-23T16:57:36.207Z,100634.94
2022-08-23T17:00:06.834Z,100635.28
2022-08-23T17:02:36.506Z,100635.97
2022-08-23T17:05:05.683Z,100640.63
2022-08-23T17:07:32.568Z,100635.28
2022-08-23T17:09:59.271Z,100632.97
2022-08-23T17:12:26.142Z,100628.25
2022-08-23T17:14:54.755Z,100633.19
2022-08-23T17:17:21.419Z,100638.59
2022-08-23T17:19:48.171Z,100640.06
2022-08-23T17:22:15.092Z,100647.47
2022-08-23T17:24:41.692Z,100645.28
2022-08-23T17:27:08.591Z,100653.16
2022-08-23T17:29:42.779Z,100646.91
2022-08-23T17:32:09.987Z,100649.97
2022-08-23T17:34:38.883Z,100659.19
2022-08-23T17:37:15.736Z,100658.09
2022-08-23T17:39:42.789Z,100658.38
2022-08-23T17:42:09.431Z,100663.38
2022-08-23T17:44:36.132Z,100662.72
2022-08-23T17:47:07.723Z,100666.72
2022-08-23T17:49:34.664Z,100667.44
2022-08-23T17:52:03.815Z,100672.06
2022-08-23T17:54:30.525Z,100672.88
2022-08-23T17:56:57.255Z,100672.50
2022-08-23T17:59:23.977Z,100679.00
2022-08-23T18:01:50.793Z,100680.88
2022-08-23T18:04:18.123Z,100680.50
2022-08-23T18:06:45.602Z,100684.63
2022-08-23T18:09:12.582Z,100687.88
2022-08-23T18:11:39.222Z,100686.66
2022-08-23T18:14:06.111Z,100687.88
2022-08-23T18:16:35.546Z,100692.44
2022-08-23T18:19:05.219Z,100687.31
2022-08-23T18:21:33.140Z,100684.34
2022-08-23T18:23:59.852Z,100691.50
2022-08-23T18:26:45.556Z,100691.03
2022-08-23T18:29:14.552Z,100689.38
2022-08-23T18:31:43.960Z,100693.41
2022-08-23T18:34:13.110Z,100695.38
2022-08-23T18:36:39.804Z,100693.94
2022-08-23T18:39:08.389Z,100698.00
2022-08-23T18:41:35.135Z,100706.59
2022-08-23T18:44:05.658Z,100701.75
2022-08-23T18:46:39.019Z,100708.78
2022-08-23T18:49:08.754Z,100716.44
2022-08-23T18:51:35.992Z,100719.47
2022-08-23T18:54:03.171Z,100720.63
2022-08-23T18:56:29.862Z,100715.34
2022-08-23T18:58:56.531Z,100714.38
2022-08-23T19:01:32.843Z,100724.41
2022-08-23T19:04:01.848Z,100729.53
2022-08-23T19:06:28.553Z,100729.31
2022-08-23T19:08:55.955Z,100721.22
2022-08-23T19:11:24.263Z,100732.66
2022-08-23T19:13:51.196Z,100724.25
2022-08-23T19:16:19.470Z,100734.78
2022-08-23T19:18:49.747Z,100731.34
2022-08-23T19:21:21.290Z,100739.47
2022-08-23T19:23:50.388Z,100745.44
2022-08-23T19:26:19.668Z,100746.63
2022-08-23T19:28:46.843Z,100745.97
2022-08-23T19:31:14.186Z,100744.34
2022-08-23T19:33:41.521Z,100754.28
2022-08-23T19:36:23.648Z,100758.34
2022-08-23T19:38:56.765Z,100753.41
2022-08-23T19:41:23.406Z,100764.41
2022-08-23T19:43:50.018Z,100759.06
2022-08-23T19:46:16.947Z,100751.97
2022-08-23T19:48:45.768Z,100760.44
2022-08-23T19:51:14.664Z,100752.34
2022-08-23T19:53:42.272Z,100758.00
2022-08-23T19:56:09.467Z,100754.66
2022-08-23T19:58:38.237Z,100758.59
2022-08-23T20:01:04.853Z,100761.19
2022-08-23T20:03:31.580Z,100770.63
2022-08-23T20:05:58.188Z,100773.41
2022-08-23T20:08:25.567Z,100761.50
2022-08-23T20:10:52.145Z,100762.81
2022-08-23T20:13:21.714Z,100766.19
2022-08-23T20:15:49.183Z,100771.88
2022-08-23T20:18:18.082Z,100773.16
2022-08-23T20:20:44.836Z,100776.31
2022-08-23T20:23:31.028Z,100776.56
2022-08-23T20:25:57.803Z,100776.59
2022-08-23T20:28:26.404Z,100781.16
2022-08-23T20:30:53.300Z,100776.78
2022-08-23T20:33:19.958Z,100781.28
2022-08-23T20:35:46.852Z,100790.91
2022-08-23T20:38:33.299Z,100789.13
2022-08-23T20:41:00.300Z,100789.84
2022-08-23T20:43:30.048Z,100795.97
2022-08-23T20:45:56.762Z,100791.47
2022-08-23T20:48:23.417Z,100791.75
2022-08-23T20:50:50.115Z,100784.28
2022-08-23T20:53:16.992Z,100785.13
2022-08-23T20:55:43.738Z,100792.41
2022-08-23T20:58:10.464Z,100783.59
2022-08-23T21:00:37.227Z,100792.22
2022-08-23T21:03:04.151Z,100788.66
2022-08-23T21:05:30.891Z,100788.91
2022-08-23T21:07:57.641Z,100787.28
2022-08-23T21:10:25.815Z,100793.81
2022-08-23T21:12:52.768Z,100788.78
2022-08-23T21:15:19.580Z,100793.84
2022-08-23T21:17:46.746Z,100791.91
2022-08-23T21:20:14.479Z,100797.84
2022-08-23T21:22:41.363Z,100799.84
2022-08-23T21:25:08.524Z,100800.78
2022-08-23T21:27:35.401Z,100804.19
2022-08-23T21:30:04.018Z,100798.53
2022-08-23T21:32:30.779Z,100786.72
2022-08-23T21:34:58.517Z,100797.16
2022-08-23T21:37:25.979Z,100796.91
2022-08-23T21:39:52.628Z,100793.53
2022-08-23T21:42:23.498Z,100792.91
2022-08-23T21:44:50.551Z,100797.41
2022-08-23T21:47:17.668Z,100793.63
2022-08-23T21:49:44.381Z,100785.41
2022-08-23T21:52:10.980Z,100785.63
2022-08-23T21:54:42.852Z,100788.78
2022-08-23T21:57:10.474Z,100787.13
2022-08-23T21:59:37.407Z,100787.66
2022-08-23T22:02:04.411Z,100786.78
2022-08-23T22:04:31.138Z,100790.22
2022-08-23T22:07:00.065Z,100785.41
2022-08-23T22:09:31.522Z,100792.47
2022-08-23T22:12:00.304Z,100781.53
2022-08-23T22:14:31.706Z,100782.97
2022-08-23T22:16:59.215Z,100787.22
2022-08-23T22:19:26.354Z,100789.44
2022-08-23T22:21:53.264Z,100796.50
2022-08-23T22:24:25.230Z,100790.09
2022-08-23T22:26:53.525Z,100790.16
2022-08-23T22:29:20.177Z,100793.50
2022-08-23T22:31:48.224Z,100789.00
2022-08-23T22:34:15.174Z,100795.13
2022-08-23T22:36:41.998Z,100799.31
2022-08-23T22:39:08.721Z,100804.50
2022-08-23T22:41:35.477Z,100803.66
2022-08-23T22:44:03.212Z,100799.94
2022-08-23T22:46:31.897Z,100798.50
2022-08-23T22:48:58.855Z,100805.88
2022-08-23T22:51:32.856Z,100805.13
2022-08-23T22:54:02.371Z,100797.59
2022-08-23T22:56:32.436Z,100800.09
2022-08-23T22:58:59.711Z,100803.19
2022-08-23T23:01:34.341Z,100804.31
2022-08-23T23:04:03.334Z,100795.88
2022-08-23T23:06:30.441Z,100797.28
2022-08-23T23:08:57.231Z,100796.44
2022-08-23T23:11:24.590Z,100798.13
2022-08-23T23:13:51.933Z,100792.50
2022-08-23T23:16:22.651Z,100795.03
2022-08-23T23:19:08.639Z,100792.22
2022-08-23T23:21:55.766Z,100796.16
2022-08-23T23:24:34.850Z,100793.06
2022-08-23T23:27:02.564Z,100798.16
2022-08-23T23:29:31.603Z,100800.75
2022-08-23T23:31:58.794Z,100800.78
2022-08-23T23:34:26.589Z,100801.63
2022-08-23T23:36:56.086Z,100792.38
2022-08-23T23:39:22.943Z,100788.75
2022-08-23T23:41:49.527Z,100794.59
2022-08-23T23:44:16.334Z,100801.91
2022-08-23T23:46:56.302Z,100801.06
2022-08-23T23:49:23.478Z,100791.78
2022-08-23T23:51:56.324Z,100802.22
2022-08-23T23:54:22.910Z,100800.53
2022-08-23T23:56:51.201Z,100797.72
2022-08-23T23:59:17.788Z,100806.72
